createdAt,value
2017-12-13T00:00:14.854Z,4.40
2017-12-13T00:02:43.200Z,5.90
2017-12-13T00:05:11.539Z,5.00
2017-12-13T00:07:39.874Z,4.80
2017-12-13T00:10:08.266Z,5.07
2017-12-13T00:12:36.652Z,3.47
2017-12-13T00:15:04.983Z,5.03
2017-12-13T00:17:33.309Z,5.13
2017-12-13T00:20:01.765Z,4.60
2017-12-13T00:22:32.844Z,4.70
2017-12-13T00:25:01.189Z,4.77
2017-12-13T00:27:29.559Z,4.80
2017-12-13T00:29:57.897Z,4.73
2017-12-13T00:32:26.271Z,4.97
2017-12-13T00:34:54.607Z,5.40
2017-12-13T00:37:22.952Z,4.13
2017-12-13T00:39:51.296Z,3.90
2017-12-13T00:42:19.628Z,5.27
2017-12-13T00:44:47.950Z,5.17
2017-12-13T00:47:16.297Z,5.70
2017-12-13T00:49:44.622Z,4.43
2017-12-13T00:52:12.932Z,4.17
2017-12-13T00:54:41.253Z,5.30
2017-12-13T00:57:09.571Z,4.50
2017-12-13T00:59:37.924Z,3.50
2017-12-13T01:02:06.290Z,4.57
2017-12-13T01:04:34.627Z,4.07
2017-12-13T01:07:02.952Z,3.80
2017-12-13T01:09:31.280Z,4.33
2017-12-13T01:11:59.702Z,4.37
2017-12-13T01:14:28.033Z,4.93
2017-12-13T01:16:56.359Z,4.57
2017-12-13T01:19:24.779Z,3.83
2017-12-13T01:21:53.080Z,3.90
2017-12-13T01:24:21.424Z,3.77
2017-12-13T01:26:49.782Z,5.07
2017-12-13T01:29:18.089Z,4.80
2017-12-13T01:31:46.488Z,3.90
2017-12-13T01:34:15.534Z,4.00
2017-12-13T01:36:43.913Z,4.20
2017-12-13T01:39:12.340Z,4.23
2017-12-13T01:41:41.562Z,3.90
2017-12-13T01:44:09.917Z,4.50
2017-12-13T01:46:38.273Z,3.80
2017-12-13T01:49:06.609Z,4.10
2017-12-13T01:51:34.918Z,3.60
2017-12-13T01:54:03.252Z,4.03
2017-12-13T01:56:31.597Z,4.53
2017-12-13T01:58:59.898Z,3.43
2017-12-13T02:01:28.264Z,4.17
2017-12-13T02:03:56.588Z,4.53
2017-12-13T02:06:24.980Z,4.57
2017-12-13T02:08:53.352Z,4.73
2017-12-13T02:11:21.755Z,4.07
2017-12-13T02:13:50.123Z,4.40
2017-12-13T02:16:18.418Z,4.10
2017-12-13T02:18:46.793Z,4.83
2017-12-13T02:21:15.132Z,4.43
2017-12-13T02:23:43.437Z,3.77
2017-12-13T02:26:11.776Z,3.83
2017-12-13T02:28:40.198Z,4.53
2017-12-13T02:31:08.527Z,3.90
2017-12-13T02:33:36.832Z,3.37
2017-12-13T02:36:05.180Z,3.73
2017-12-13T02:38:33.485Z,3.90
2017-12-13T02:41:02.081Z,4.13
2017-12-13T02:43:30.429Z,4.00
2017-12-13T02:45:58.766Z,5.20
2017-12-13T02:48:27.185Z,4.87
2017-12-13T02:50:55.494Z,4.60
2017-12-13T02:53:23.889Z,4.50
2017-12-13T02:55:52.220Z,4.80
2017-12-13T02:58:20.528Z,4.73
2017-12-13T03:00:49.592Z,4.73
2017-12-13T03:03:18.952Z,5.37
2017-12-13T03:05:47.286Z,4.33
2017-12-13T03:08:19.596Z,4.90
2017-12-13T03:10:47.911Z,4.43
2017-12-13T03:13:16.291Z,5.23
2017-12-13T03:15:44.596Z,5.00
2017-12-13T03:18:12.948Z,4.20
2017-12-13T03:20:41.272Z,4.80
2017-12-13T03:23:09.639Z,4.67
2017-12-13T03:25:38.008Z,5.63
2017-12-13T03:28:06.359Z,4.57
2017-12-13T03:30:34.700Z,5.30
2017-12-13T03:33:03.054Z,4.50
2017-12-13T03:35:31.368Z,5.30
2017-12-13T03:37:59.735Z,4.43
2017-12-13T03:40:28.046Z,4.43
2017-12-13T03:42:56.359Z,4.30
2017-12-13T03:45:24.684Z,4.57
2017-12-13T03:47:52.996Z,4.60
2017-12-13T03:50:21.321Z,4.00
2017-12-13T03:52:49.720Z,4.47
2017-12-13T03:55:18.030Z,4.30
2017-12-13T03:57:46.375Z,4.30
2017-12-13T04:00:14.693Z,3.63
2017-12-13T04:02:43.024Z,4.97
2017-12-13T04:05:11.386Z,4.73
2017-12-13T04:07:39.691Z,3.60
2017-12-13T04:10:08.041Z,3.10
2017-12-13T04:12:36.369Z,3.83
2017-12-13T04:15:04.701Z,3.63
2017-12-13T04:17:33.024Z,3.87
2017-12-13T04:20:01.402Z,3.73
2017-12-13T04:22:29.767Z,3.50
2017-12-13T04:24:58.080Z,4.20
2017-12-13T04:27:26.442Z,4.40
2017-12-13T04:29:54.809Z,3.87
2017-12-13T04:32:23.123Z,4.03
2017-12-13T04:34:51.454Z,3.93
2017-12-13T04:37:19.806Z,3.17
2017-12-13T04:39:48.128Z,3.53
2017-12-13T04:42:16.568Z,3.60
2017-12-13T04:44:44.914Z,4.10
2017-12-13T04:47:13.267Z,4.07
2017-12-13T04:49:41.600Z,3.33
2017-12-13T04:52:09.956Z,3.83
2017-12-13T04:54:38.300Z,3.53
2017-12-13T04:57:06.653Z,5.20
2017-12-13T04:59:35.060Z,4.40
2017-12-13T05:02:03.384Z,3.97
2017-12-13T05:04:31.701Z,4.70
2017-12-13T05:07:00.044Z,4.70
2017-12-13T05:09:28.379Z,4.27
2017-12-13T05:11:56.700Z,3.00
2017-12-13T05:14:25.076Z,3.90
2017-12-13T05:16:53.547Z,3.30
2017-12-13T05:19:22.116Z,3.20
2017-12-13T05:21:50.512Z,2.40
2017-12-13T05:24:18.964Z,3.60
2017-12-13T05:26:47.341Z,3.27
2017-12-13T05:29:15.700Z,2.80
2017-12-13T05:31:44.366Z,3.60
2017-12-13T05:34:12.686Z,4.20
2017-12-13T05:36:41.133Z,4.60
2017-12-13T05:39:09.480Z,3.93
2017-12-13T05:41:37.813Z,4.27
2017-12-13T05:44:06.244Z,4.67
2017-12-13T05:46:34.653Z,4.43
2017-12-13T05:49:03.007Z,4.73
2017-12-13T05:51:31.342Z,4.10
2017-12-13T05:53:59.717Z,4.07
2017-12-13T05:56:28.030Z,4.20
2017-12-13T05:58:56.408Z,3.80
2017-12-13T06:01:24.781Z,4.27
2017-12-13T06:03:53.113Z,3.83
2017-12-13T06:06:21.484Z,2.63
2017-12-13T06:08:49.969Z,3.87
2017-12-13T06:11:20.062Z,3.30
2017-12-13T06:13:48.409Z,3.40
2017-12-13T06:16:16.858Z,3.47
2017-12-13T06:18:45.183Z,2.47
2017-12-13T06:21:13.565Z,3.50
2017-12-13T06:23:42.357Z,3.20
2017-12-13T06:26:11.046Z,2.30
2017-12-13T06:28:39.419Z,3.17
2017-12-13T06:31:08.117Z,3.30
2017-12-13T06:33:36.467Z,3.37
2017-12-13T06:36:04.815Z,3.20
2017-12-13T06:38:33.130Z,4.17
2017-12-13T06:41:01.519Z,2.90
2017-12-13T06:43:30.084Z,3.00
2017-12-13T06:45:58.407Z,4.20
2017-12-13T06:48:27.529Z,3.10
2017-12-13T06:50:55.839Z,3.50
2017-12-13T06:53:24.208Z,3.63
2017-12-13T06:55:52.583Z,2.80
2017-12-13T06:58:20.884Z,3.23
2017-12-13T07:00:49.479Z,2.77
2017-12-13T07:03:17.932Z,3.50
2017-12-13T07:05:46.345Z,3.70
2017-12-13T07:08:14.900Z,3.73
2017-12-13T07:10:43.250Z,2.87
2017-12-13T07:13:11.558Z,3.30
2017-12-13T07:15:40.114Z,3.80
2017-12-13T07:18:08.548Z,3.33
2017-12-13T07:20:37.003Z,2.20
2017-12-13T07:23:05.800Z,3.50
2017-12-13T07:28:10.078Z,3.90
2017-12-13T07:30:38.831Z,3.10
2017-12-13T07:33:07.193Z,3.03
2017-12-13T07:35:36.383Z,3.93
2017-12-13T07:38:04.943Z,3.77
2017-12-13T07:40:33.346Z,2.50
2017-12-13T07:43:01.734Z,3.33
2017-12-13T07:45:30.039Z,3.47
2017-12-13T07:47:58.347Z,3.80
2017-12-13T07:50:26.692Z,3.30
2017-12-13T07:52:55.088Z,2.60
2017-12-13T07:55:23.388Z,2.17
2017-12-13T07:57:51.987Z,2.90
2017-12-13T08:00:22.039Z,2.37
2017-12-13T08:02:51.152Z,2.83
2017-12-13T08:05:19.504Z,4.43
2017-12-13T08:07:47.976Z,3.13
2017-12-13T08:10:16.329Z,2.80
2017-12-13T08:12:44.847Z,2.93
2017-12-13T08:15:14.959Z,3.07
2017-12-13T08:17:43.632Z,2.73
2017-12-13T08:20:12.490Z,3.30
2017-12-13T08:22:41.141Z,2.90
2017-12-13T08:25:09.741Z,3.90
2017-12-13T08:27:38.888Z,3.30
2017-12-13T08:30:07.313Z,3.43
2017-12-13T08:35:09.428Z,2.60
2017-12-13T08:37:37.720Z,2.40
2017-12-13T08:40:06.125Z,3.63
2017-12-13T08:42:34.522Z,2.00
2017-12-13T08:45:02.870Z,2.40
2017-12-13T08:47:31.351Z,2.03
2017-12-13T08:50:00.569Z,2.33
2017-12-13T08:52:29.222Z,2.60
2017-12-13T08:54:57.622Z,2.80
2017-12-13T08:57:26.422Z,2.63
2017-12-13T08:59:54.757Z,2.10
2017-12-13T09:02:23.441Z,2.83
2017-12-13T09:04:52.020Z,2.70
2017-12-13T09:07:20.742Z,2.10
2017-12-13T09:09:50.745Z,2.57
2017-12-13T09:12:19.276Z,2.80
2017-12-13T09:14:47.742Z,2.70
2017-12-13T09:17:16.404Z,2.27
2017-12-13T09:19:45.071Z,3.20
2017-12-13T09:22:15.179Z,2.57
2017-12-13T09:24:43.536Z,3.60
2017-12-13T09:27:12.119Z,3.10
2017-12-13T09:29:40.510Z,2.80
2017-12-13T09:32:09.942Z,2.80
2017-12-13T09:34:38.595Z,3.20
2017-12-13T09:37:06.916Z,2.60
2017-12-13T09:39:35.359Z,2.37
2017-12-13T09:42:07.289Z,2.60
2017-12-13T09:44:35.617Z,2.27
2017-12-13T09:47:04.004Z,2.23
2017-12-13T09:49:32.645Z,1.60
2017-12-13T09:52:01.132Z,2.80
2017-12-13T09:54:29.648Z,1.60
2017-12-13T09:56:58.017Z,2.10
2017-12-13T09:59:26.515Z,1.70
2017-12-13T10:01:57.651Z,1.80
2017-12-13T10:04:25.987Z,1.77
2017-12-13T10:06:54.351Z,2.33
2017-12-13T10:11:56.087Z,1.57
2017-12-13T10:14:24.445Z,1.67
2017-12-13T10:16:52.803Z,3.43
2017-12-13T10:19:21.362Z,2.20
2017-12-13T10:21:50.663Z,1.83
2017-12-13T10:24:22.567Z,1.70
2017-12-13T10:26:52.723Z,1.93
2017-12-13T10:29:21.110Z,2.33
2017-12-13T10:31:49.467Z,1.63
2017-12-13T10:36:59.485Z,2.10
2017-12-13T10:39:27.964Z,2.40
2017-12-13T10:41:56.288Z,1.70
2017-12-13T10:44:24.660Z,1.50
2017-12-13T10:49:25.808Z,2.00
2017-12-13T10:54:26.597Z,2.53
2017-12-13T10:56:55.296Z,2.00
2017-12-13T10:59:23.713Z,1.63
2017-12-13T11:04:25.788Z,1.70
2017-12-13T11:06:54.234Z,6.90
2017-12-13T11:11:55.344Z,1.57
2017-12-13T11:14:27.444Z,2.10
2017-12-13T11:16:56.435Z,1.40
2017-12-13T11:19:25.204Z,1.30
2017-12-13T11:21:54.315Z,1.50
2017-12-13T11:24:22.867Z,1.77
2017-12-13T11:26:54.745Z,1.10
2017-12-13T11:29:23.508Z,1.30
2017-12-13T11:31:52.146Z,1.80
2017-12-13T11:34:20.580Z,3.27
2017-12-13T11:36:49.001Z,1.27
2017-12-13T11:39:19.328Z,1.50
2017-12-13T11:41:47.906Z,1.77
2017-12-13T11:44:16.397Z,1.50
2017-12-13T11:49:17.679Z,1.37
2017-12-13T11:51:46.119Z,1.17
2017-12-13T11:56:49.997Z,2.47
2017-12-13T11:59:18.789Z,2.87
2017-12-13T12:01:48.204Z,1.20
2017-12-13T12:04:16.739Z,1.77
2017-12-13T12:06:45.692Z,2.80
2017-12-13T12:09:14.121Z,2.80
2017-12-13T12:11:42.772Z,2.30
2017-12-13T12:14:11.289Z,2.70
2017-12-13T12:16:39.729Z,1.43
2017-12-13T12:24:13.226Z,2.03
2017-12-13T12:26:42.147Z,1.90
2017-12-13T12:31:43.133Z,2.07
2017-12-13T12:34:15.846Z,1.93
2017-12-13T12:39:16.658Z,1.50
2017-12-13T12:41:45.154Z,2.60
2017-12-13T12:44:13.865Z,2.13
2017-12-13T12:46:42.557Z,1.60
2017-12-13T12:49:10.930Z,2.23
2017-12-13T12:51:39.238Z,2.07
2017-12-13T12:54:07.830Z,1.93
2017-12-13T12:56:40.944Z,2.00
2017-12-13T12:59:10.317Z,3.30
2017-12-13T13:01:38.766Z,1.40
2017-12-13T13:04:07.567Z,2.00
2017-12-13T13:06:39.626Z,2.30
2017-12-13T13:09:08.681Z,1.47
2017-12-13T13:11:38.924Z,1.40
2017-12-13T13:14:07.277Z,1.43
2017-12-13T13:16:35.756Z,1.97
2017-12-13T13:19:04.943Z,1.80
2017-12-13T13:21:33.338Z,2.33
2017-12-13T13:24:01.709Z,2.60
2017-12-13T13:26:30.169Z,2.30
2017-12-13T13:28:58.558Z,2.00
2017-12-13T13:36:32.613Z,7.50
2017-12-13T13:39:01.091Z,2.30
2017-12-13T13:41:30.410Z,3.00
2017-12-13T13:43:59.173Z,2.37
2017-12-13T13:49:00.330Z,2.10
2017-12-13T13:51:30.858Z,2.20
2017-12-13T13:54:03.121Z,4.27
2017-12-13T13:56:31.831Z,2.00
2017-12-13T13:59:00.210Z,2.03
2017-12-13T14:01:36.103Z,1.60
2017-12-13T14:04:04.482Z,1.70
2017-12-13T14:09:07.322Z,5.20
2017-12-13T14:11:35.762Z,3.40
2017-12-13T14:14:04.363Z,2.20
2017-12-13T14:16:38.501Z,2.70
2017-12-13T14:24:12.675Z,2.27
2017-12-13T14:26:42.236Z,2.03
2017-12-13T14:29:10.652Z,3.10
2017-12-13T14:31:39.457Z,3.30
2017-12-13T14:34:08.671Z,3.40
2017-12-13T14:39:09.869Z,2.87
2017-12-13T14:44:11.970Z,3.60
2017-12-13T14:49:14.119Z,4.00
2017-12-13T14:54:18.146Z,3.60
2017-12-13T14:56:46.712Z,4.00
2017-12-13T14:59:15.208Z,3.30
2017-12-13T15:01:44.765Z,3.20
2017-12-13T15:04:13.595Z,3.50
2017-12-13T15:06:42.608Z,3.40
2017-12-13T15:14:27.078Z,4.40
2017-12-13T15:27:09.549Z,3.80
2017-12-13T15:29:38.028Z,4.87
2017-12-13T15:32:10.925Z,4.83
2017-12-13T15:34:47.844Z,3.60
2017-12-13T15:37:16.769Z,3.73
2017-12-13T15:39:46.437Z,3.30
2017-12-13T15:42:27.856Z,4.07
2017-12-13T15:44:57.137Z,4.07
2017-12-13T15:47:26.027Z,4.20
2017-12-13T15:52:28.825Z,3.43
2017-12-13T15:54:57.342Z,4.63
2017-12-13T15:57:28.227Z,4.30
2017-12-13T15:59:56.795Z,4.03
2017-12-13T16:02:25.171Z,4.33
2017-12-13T16:04:53.890Z,4.20
2017-12-13T16:07:22.518Z,5.83
2017-12-13T16:09:50.849Z,4.87
2017-12-13T16:14:51.778Z,4.50
2017-12-13T16:19:53.952Z,5.10
2017-12-13T16:22:22.428Z,4.43
2017-12-13T16:27:29.219Z,7.20
2017-12-13T16:35:04.590Z,6.00
2017-12-13T16:37:33.119Z,3.87
2017-12-13T16:47:40.821Z,4.20
2017-12-13T16:50:09.254Z,4.70
2017-12-13T16:52:39.732Z,4.20
2017-12-13T16:55:08.325Z,4.83
2017-12-13T16:57:36.803Z,6.73
2017-12-13T17:00:14.920Z,2.97
2017-12-13T17:02:43.492Z,5.40
2017-12-13T17:05:13.241Z,3.90
2017-12-13T17:10:20.312Z,4.80
2017-12-13T17:12:48.808Z,3.83
2017-12-13T17:17:51.954Z,4.37
2017-12-13T17:22:54.242Z,4.40
2017-12-13T17:25:22.574Z,4.00
2017-12-13T17:30:25.194Z,3.70
2017-12-13T17:32:53.734Z,3.40
2017-12-13T17:37:56.404Z,3.20
2017-12-13T17:40:43.729Z,3.27
2017-12-13T17:43:12.176Z,4.10
2017-12-13T17:48:14.484Z,4.00
2017-12-13T17:50:45.920Z,3.50
2017-12-13T17:53:15.423Z,3.33
2017-12-13T17:55:44.173Z,3.60
2017-12-13T17:58:12.735Z,3.03
2017-12-13T18:06:16.764Z,2.80
2017-12-13T18:08:48.564Z,2.40
2017-12-13T18:13:59.276Z,3.57
2017-12-13T18:24:09.114Z,4.10
2017-12-13T18:29:17.730Z,2.67
2017-12-13T18:38:11.469Z,3.30
2017-12-13T18:54:45.110Z,3.10
2017-12-13T19:17:50.116Z,3.50
2017-12-13T19:22:55.474Z,3.50
2017-12-13T19:38:12.065Z,4.20
2017-12-13T19:48:20.439Z,3.40
2017-12-13T19:50:50.041Z,4.00
2017-12-13T19:55:53.781Z,3.00
2017-12-13T20:03:28.291Z,2.57
2017-12-13T20:11:09.194Z,2.70
2017-12-13T20:16:10.807Z,2.03
2017-12-13T20:18:39.781Z,2.67
2017-12-13T20:23:41.211Z,2.13
2017-12-13T20:26:11.287Z,2.57
2017-12-13T20:28:39.641Z,3.13
2017-12-13T20:31:08.214Z,1.83
2017-12-13T20:36:09.398Z,2.43
2017-12-13T20:41:10.677Z,2.40
2017-12-13T20:43:39.156Z,2.53
2017-12-13T20:48:45.925Z,2.43
2017-12-13T20:51:15.088Z,2.20
2017-12-13T20:56:16.499Z,2.47
2017-12-13T20:58:57.102Z,1.97
2017-12-13T21:01:25.929Z,2.27
2017-12-13T21:03:55.313Z,2.50
2017-12-13T21:08:59.833Z,1.63
2017-12-13T21:11:28.386Z,2.00
2017-12-13T21:13:56.714Z,3.10
2017-12-13T21:16:25.075Z,2.50
2017-12-13T21:18:53.477Z,2.37
2017-12-13T21:21:21.923Z,2.60
2017-12-13T21:23:50.346Z,3.47
2017-12-13T21:26:18.818Z,3.53
2017-12-13T21:28:51.449Z,3.00
2017-12-13T21:31:20.148Z,2.17
2017-12-13T21:38:54.806Z,3.67
2017-12-13T21:41:23.180Z,2.40
2017-12-13T21:43:51.807Z,2.50
2017-12-13T21:46:20.285Z,2.60
2017-12-13T21:48:48.747Z,3.20
2017-12-13T21:51:17.439Z,2.87
2017-12-13T21:53:46.098Z,4.43
2017-12-13T21:56:14.515Z,3.30
2017-12-13T21:58:43.121Z,2.60
2017-12-13T22:01:12.465Z,2.23
2017-12-13T22:03:46.308Z,2.73
2017-12-13T22:06:14.759Z,2.10
2017-12-13T22:08:43.212Z,2.47
2017-12-13T22:11:11.555Z,2.37
2017-12-13T22:13:40.247Z,1.70
2017-12-13T22:16:08.831Z,2.07
2017-12-13T22:18:37.934Z,2.90
2017-12-13T22:21:06.327Z,2.50
2017-12-13T22:23:36.663Z,1.40
2017-12-13T22:26:06.958Z,1.60
2017-12-13T22:28:35.372Z,1.83
2017-12-13T22:31:03.767Z,2.03
2017-12-13T22:33:32.271Z,2.30
2017-12-13T22:36:00.657Z,1.33
2017-12-13T22:38:29.005Z,2.00
2017-12-13T22:40:57.405Z,2.33
2017-12-13T22:43:25.742Z,2.00
2017-12-13T22:45:57.864Z,1.23
2017-12-13T22:48:27.763Z,2.80
2017-12-13T22:50:56.230Z,1.97
2017-12-13T22:53:25.022Z,1.97
2017-12-13T22:55:53.442Z,1.47
2017-12-13T22:58:21.780Z,2.27
2017-12-13T23:00:51.108Z,2.80
2017-12-13T23:03:19.532Z,2.20
2017-12-13T23:05:49.659Z,1.40
2017-12-13T23:08:18.323Z,1.90
2017-12-13T23:10:46.691Z,2.20
2017-12-13T23:13:15.115Z,2.00
2017-12-13T23:15:43.649Z,1.43
2017-12-13T23:18:11.982Z,1.80
2017-12-13T23:20:41.198Z,1.57
2017-12-13T23:23:09.570Z,1.60
2017-12-13T23:25:37.956Z,2.00
2017-12-13T23:28:06.395Z,1.50
2017-12-13T23:30:34.828Z,1.27
2017-12-13T23:33:03.152Z,1.10
2017-12-13T23:35:31.507Z,1.20
2017-12-13T23:37:59.909Z,1.70
2017-12-13T23:40:28.329Z,1.43
2017-12-13T23:42:57.022Z,1.50
2017-12-13T23:45:25.344Z,1.47
2017-12-13T23:47:53.723Z,1.20
2017-12-13T23:50:22.064Z,1.13
2017-12-13T23:52:50.522Z,1.40
2017-12-13T23:55:18.987Z,1.20
2017-12-13T23:57:47.372Z,1.50
